WAT8426 LFLC-EGSS
Flight info
| Callsign | WAT8426 |
|---|---|
| Flight time | N/A |
| Altitude | 36000 |
| Route | RIVEK DCT ERTOK DCT ASVOK DCT BIBAX DCT LLE01 DCT UGBET |
| Aircraft | A20N/M-SDE2E3FGHIRWXY/LB1 |
Departure
| Time | 2026-04-15 19:43 |
|---|---|
| Airport | Clermont-Ferrand Auvergne airport (LFLC) |
Arrival
| Time | N/A |
|---|---|
| Airport | London Stansted Airport (EGSS) |
| Time | Latitude | Longitude | Altitude | Speed | Heading |
|---|---|---|---|---|---|
| 2026-04-15 19:16 | 45.78923 | 3.15735 | 1095 ft | 0 kts | 353° |
| 2026-04-15 19:33 | 45.78921 | 3.15736 | 1094 ft | 1 kts | 353° |
| 2026-04-15 19:34 | 45.78913 | 3.15737 | 1094 ft | 1 kts | 353° |
| 2026-04-15 19:34 | 45.78905 | 3.15738 | 1094 ft | 1 kts | 353° |
| 2026-04-15 19:34 | 45.78898 | 3.15740 | 1094 ft | 1 kts | 345° |
| 2026-04-15 19:34 | 45.78890 | 3.15743 | 1093 ft | 1 kts | 335° |
| 2026-04-15 19:35 | 45.78883 | 3.15748 | 1091 ft | 1 kts | 326° |
| 2026-04-15 19:35 | 45.78877 | 3.15754 | 1092 ft | 1 kts | 317° |
| 2026-04-15 19:35 | 45.78872 | 3.15762 | 1093 ft | 1 kts | 307° |
| 2026-04-15 19:35 | 45.78867 | 3.15770 | 1094 ft | 1 kts | 297° |
| 2026-04-15 19:36 | 45.78864 | 3.15780 | 1092 ft | 1 kts | 290° |
| 2026-04-15 19:36 | 45.78861 | 3.15791 | 1094 ft | 1 kts | 282° |
| 2026-04-15 19:36 | 45.78860 | 3.15801 | 1094 ft | 1 kts | 272° |
| 2026-04-15 19:36 | 45.78859 | 3.15812 | 1094 ft | 1 kts | 262° |
| 2026-04-15 19:37 | 45.78860 | 3.15815 | 1094 ft | 0 kts | 260° |
| 2026-04-15 19:39 | 45.78859 | 3.15807 | 1094 ft | 6 kts | 260° |
| 2026-04-15 19:39 | 45.78846 | 3.15701 | 1094 ft | 14 kts | 261° |
| 2026-04-15 19:39 | 45.78829 | 3.15547 | 1094 ft | 17 kts | 261° |
| 2026-04-15 19:39 | 45.78826 | 3.15505 | 1094 ft | 2 kts | 265° |
| 2026-04-15 19:40 | 45.78825 | 3.15483 | 1094 ft | 0 kts | 265° |
| 2026-04-15 19:41 | 45.78820 | 3.15438 | 1093 ft | 9 kts | 257° |
| 2026-04-15 19:41 | 45.78762 | 3.15386 | 1094 ft | 12 kts | 187° |
| 2026-04-15 19:41 | 45.78667 | 3.15369 | 1094 ft | 15 kts | 188° |
| 2026-04-15 19:41 | 45.78558 | 3.15348 | 1095 ft | 17 kts | 187° |
| 2026-04-15 19:42 | 45.78513 | 3.15370 | 1095 ft | 4 kts | 103° |
| 2026-04-15 19:42 | 45.78516 | 3.15422 | 1096 ft | 7 kts | 85° |
| 2026-04-15 19:42 | 45.78521 | 3.15482 | 1096 ft | 0 kts | 83° |
| 2026-04-15 19:43 | 45.78560 | 3.15871 | 1096 ft | 76 kts | 81° |
| 2026-04-15 19:43 | 45.78665 | 3.16925 | 1096 ft | 135 kts | 82° |
| 2026-04-15 19:43 | 45.78813 | 3.18404 | 1340 ft | 157 kts | 81° |
| 2026-04-15 19:43 | 45.78962 | 3.19939 | 1968 ft | 155 kts | 82° |
| 2026-04-15 19:44 | 45.79108 | 3.21458 | 2621 ft | 154 kts | 70° |
| 2026-04-15 19:44 | 45.79758 | 3.22572 | 3224 ft | 145 kts | 20° |
| 2026-04-15 19:44 | 45.80714 | 3.22586 | 3777 ft | 141 kts | 331° |
| 2026-04-15 19:44 | 45.81471 | 3.21705 | 4384 ft | 142 kts | 313° |
| 2026-04-15 19:45 | 45.82117 | 3.20613 | 5065 ft | 145 kts | 309° |
| 2026-04-15 19:45 | 45.82737 | 3.19484 | 5744 ft | 146 kts | 309° |
| 2026-04-15 19:45 | 45.83374 | 3.18346 | 6451 ft | 146 kts | 313° |
| 2026-04-15 19:45 | 45.84140 | 3.17390 | 7130 ft | 147 kts | 326° |
| 2026-04-15 19:46 | 45.85070 | 3.16728 | 7696 ft | 157 kts | 338° |
| 2026-04-15 19:46 | 45.86188 | 3.16290 | 8109 ft | 177 kts | 347° |
| 2026-04-15 19:46 | 45.87477 | 3.15997 | 8539 ft | 198 kts | 351° |
| 2026-04-15 19:46 | 45.88923 | 3.15755 | 8912 ft | 222 kts | 352° |
| 2026-04-15 19:47 | 45.90542 | 3.15502 | 9306 ft | 246 kts | 352° |
| 2026-04-15 19:47 | 45.92329 | 3.15213 | 9768 ft | 270 kts | 352° |
| 2026-04-15 19:47 | 45.94230 | 3.14894 | 10354 ft | 284 kts | 352° |
| 2026-04-15 19:47 | 45.96208 | 3.14557 | 11210 ft | 288 kts | 351° |
| 2026-04-15 19:48 | 45.98212 | 3.14211 | 12045 ft | 293 kts | 351° |
| 2026-04-15 19:48 | 46.00251 | 3.13856 | 12889 ft | 297 kts | 351° |
| 2026-04-15 19:48 | 46.02318 | 3.13495 | 13723 ft | 302 kts | 351° |
| 2026-04-15 19:48 | 46.04420 | 3.13128 | 14502 ft | 306 kts | 350° |
| 2026-04-15 19:49 | 46.06547 | 3.12756 | 15278 ft | 309 kts | 350° |
| 2026-04-15 19:49 | 46.08690 | 3.12382 | 16034 ft | 312 kts | 350° |
| 2026-04-15 19:49 | 46.10864 | 3.12001 | 16766 ft | 317 kts | 350° |
| 2026-04-15 19:49 | 46.13031 | 3.11622 | 17512 ft | 320 kts | 349° |
| 2026-04-15 19:50 | 46.15252 | 3.11234 | 18257 ft | 323 kts | 349° |
| 2026-04-15 19:50 | 46.17500 | 3.10841 | 18925 ft | 327 kts | 349° |
| 2026-04-15 19:50 | 46.19765 | 3.10445 | 19585 ft | 330 kts | 349° |
| 2026-04-15 19:50 | 46.22061 | 3.10043 | 20040 ft | 334 kts | 349° |
| 2026-04-15 19:51 | 46.24374 | 3.09639 | 20237 ft | 336 kts | 349° |
| 2026-04-15 19:51 | 46.26742 | 3.09221 | 20388 ft | 351 kts | 349° |
| 2026-04-15 19:51 | 46.29230 | 3.08780 | 20553 ft | 369 kts | 349° |
| 2026-04-15 19:51 | 46.31834 | 3.08282 | 20733 ft | 384 kts | 346° |
| 2026-04-15 19:52 | 46.34440 | 3.07357 | 21203 ft | 387 kts | 339° |
| 2026-04-15 19:52 | 46.36920 | 3.05990 | 21847 ft | 387 kts | 333° |
| 2026-04-15 19:52 | 46.39407 | 3.04444 | 22450 ft | 390 kts | 333° |
| 2026-04-15 19:52 | 46.41919 | 3.02902 | 23052 ft | 394 kts | 334° |
| 2026-04-15 19:53 | 46.44452 | 3.01347 | 23641 ft | 397 kts | 333° |
| 2026-04-15 19:53 | 46.47008 | 2.99773 | 24154 ft | 401 kts | 333° |
| 2026-04-15 19:53 | 46.49582 | 2.98178 | 24661 ft | 403 kts | 333° |
| 2026-04-15 19:53 | 46.52170 | 2.96571 | 25141 ft | 406 kts | 333° |
| 2026-04-15 19:54 | 46.54776 | 2.94951 | 25615 ft | 410 kts | 333° |
| 2026-04-15 19:54 | 46.57406 | 2.93314 | 26029 ft | 413 kts | 333° |
| 2026-04-15 19:54 | 46.60058 | 2.91664 | 26193 ft | 414 kts | 333° |
| 2026-04-15 19:54 | 46.62705 | 2.90016 | 26227 ft | 414 kts | 333° |
| 2026-04-15 19:55 | 46.65320 | 2.88386 | 26225 ft | 414 kts | 333° |
| 2026-04-15 19:55 | 46.67975 | 2.86729 | 26361 ft | 417 kts | 333° |
| 2026-04-15 19:55 | 46.70647 | 2.85058 | 26893 ft | 418 kts | 333° |
| 2026-04-15 19:55 | 46.73326 | 2.83382 | 27355 ft | 421 kts | 333° |
| 2026-04-15 19:56 | 46.76025 | 2.81691 | 27780 ft | 423 kts | 333° |
| 2026-04-15 19:56 | 46.78739 | 2.79989 | 28202 ft | 426 kts | 333° |
| 2026-04-15 19:56 | 46.81471 | 2.78274 | 28597 ft | 429 kts | 333° |
| 2026-04-15 19:56 | 46.84221 | 2.76546 | 28986 ft | 432 kts | 333° |
| 2026-04-15 19:57 | 46.86988 | 2.74806 | 29363 ft | 434 kts | 333° |
| 2026-04-15 19:57 | 46.89735 | 2.73076 | 29733 ft | 437 kts | 332° |
| 2026-04-15 19:57 | 46.92535 | 2.71311 | 30089 ft | 440 kts | 332° |
| 2026-04-15 19:57 | 46.95349 | 2.69535 | 30431 ft | 442 kts | 332° |
| 2026-04-15 19:58 | 46.98179 | 2.67747 | 30754 ft | 444 kts | 332° |
| 2026-04-15 19:58 | 47.01026 | 2.65945 | 31070 ft | 447 kts | 332° |
| 2026-04-15 19:58 | 47.03797 | 2.64190 | 31396 ft | 448 kts | 332° |
| 2026-04-15 19:58 | 47.06639 | 2.62389 | 31780 ft | 448 kts | 332° |
| 2026-04-15 19:59 | 47.09503 | 2.60572 | 32201 ft | 448 kts | 332° |
| 2026-04-15 19:59 | 47.12356 | 2.58760 | 32620 ft | 447 kts | 332° |
| 2026-04-15 19:59 | 47.15202 | 2.56949 | 33031 ft | 446 kts | 332° |
| 2026-04-15 19:59 | 47.18012 | 2.55159 | 33421 ft | 445 kts | 332° |
| 2026-04-15 20:00 | 47.20848 | 2.53350 | 33818 ft | 444 kts | 332° |
| 2026-04-15 20:00 | 47.23680 | 2.51541 | 34210 ft | 443 kts | 332° |
| 2026-04-15 20:00 | 47.26503 | 2.49736 | 34531 ft | 443 kts | 331° |
| 2026-04-15 20:00 | 47.29328 | 2.47927 | 34826 ft | 442 kts | 331° |
| 2026-04-15 20:01 | 47.32152 | 2.46117 | 35119 ft | 442 kts | 331° |
| 2026-04-15 20:01 | 47.34968 | 2.44310 | 35409 ft | 442 kts | 331° |
| 2026-04-15 20:01 | 47.37788 | 2.42498 | 35678 ft | 442 kts | 331° |
| 2026-04-15 20:01 | 47.40604 | 2.40687 | 35947 ft | 442 kts | 331° |
| 2026-04-15 20:02 | 47.43384 | 2.38896 | 36169 ft | 442 kts | 331° |
| 2026-04-15 20:02 | 47.46197 | 2.37084 | 36220 ft | 441 kts | 331° |
| 2026-04-15 20:02 | 47.51805 | 2.33463 | 36221 ft | 440 kts | 331° |
| 2026-04-15 20:03 | 47.57408 | 2.29837 | 36216 ft | 439 kts | 331° |
| 2026-04-15 20:03 | 47.63081 | 2.26405 | 36215 ft | 442 kts | 334° |
| 2026-04-15 20:04 | 47.68845 | 2.23245 | 36215 ft | 442 kts | 334° |
| 2026-04-15 20:04 | 47.74565 | 2.20054 | 36216 ft | 442 kts | 333° |
| 2026-04-15 20:05 | 47.80309 | 2.16802 | 36217 ft | 442 kts | 333° |
| 2026-04-15 20:05 | 47.86054 | 2.13535 | 36216 ft | 442 kts | 333° |
| 2026-04-15 20:06 | 47.91796 | 2.10263 | 36226 ft | 442 kts | 333° |
| 2026-04-15 20:06 | 47.97499 | 2.07005 | 36217 ft | 442 kts | 333° |
| 2026-04-15 20:07 | 48.03241 | 2.03718 | 36212 ft | 442 kts | 333° |
| 2026-04-15 20:07 | 48.08979 | 2.00425 | 36191 ft | 442 kts | 333° |
| 2026-04-15 20:08 | 48.14713 | 1.97126 | 36193 ft | 442 kts | 333° |
| 2026-04-15 20:08 | 48.20413 | 1.93840 | 36194 ft | 442 kts | 333° |
| 2026-04-15 20:09 | 48.26146 | 1.90526 | 36191 ft | 442 kts | 333° |
| 2026-04-15 20:09 | 48.31883 | 1.87202 | 36192 ft | 442 kts | 332° |
| 2026-04-15 20:10 | 48.37616 | 1.83872 | 36188 ft | 442 kts | 332° |
| 2026-04-15 20:10 | 48.43315 | 1.80554 | 36184 ft | 442 kts | 332° |
| 2026-04-15 20:11 | 48.49055 | 1.77204 | 36188 ft | 442 kts | 332° |
| 2026-04-15 20:11 | 48.54795 | 1.73845 | 36187 ft | 443 kts | 332° |
| 2026-04-15 20:12 | 48.60539 | 1.70476 | 36183 ft | 443 kts | 332° |
| 2026-04-15 20:12 | 48.66281 | 1.67100 | 36183 ft | 443 kts | 332° |
| 2026-04-15 20:13 | 48.71991 | 1.63735 | 36182 ft | 443 kts | 332° |
| 2026-04-15 20:13 | 48.77733 | 1.60343 | 36181 ft | 443 kts | 332° |
| 2026-04-15 20:14 | 48.83484 | 1.56936 | 36179 ft | 444 kts | 332° |
| 2026-04-15 20:14 | 48.89198 | 1.53543 | 36184 ft | 444 kts | 332° |
| 2026-04-15 20:15 | 48.94951 | 1.50121 | 36187 ft | 445 kts | 332° |
| 2026-04-15 20:15 | 49.00923 | 1.47371 | 36185 ft | 450 kts | 337° |
| 2026-04-15 20:16 | 49.06943 | 1.44754 | 36183 ft | 450 kts | 337° |
| 2026-04-15 20:16 | 49.12921 | 1.42144 | 36175 ft | 449 kts | 337° |
| 2026-04-15 20:17 | 49.18930 | 1.39516 | 36178 ft | 450 kts | 337° |
| 2026-04-15 20:17 | 49.24946 | 1.36880 | 36162 ft | 450 kts | 337° |
| 2026-04-15 20:18 | 49.30964 | 1.34236 | 36160 ft | 450 kts | 337° |
| 2026-04-15 20:18 | 49.36979 | 1.31587 | 36161 ft | 450 kts | 337° |
| 2026-04-15 20:19 | 49.42994 | 1.28931 | 36162 ft | 450 kts | 337° |
| 2026-04-15 20:19 | 49.48966 | 1.26288 | 36162 ft | 450 kts | 337° |
| 2026-04-15 20:20 | 49.54981 | 1.23618 | 36161 ft | 450 kts | 337° |
| 2026-04-15 20:20 | 49.60991 | 1.20944 | 36163 ft | 450 kts | 337° |
| 2026-04-15 20:21 | 49.66958 | 1.18282 | 36163 ft | 449 kts | 337° |
| 2026-04-15 20:21 | 49.72966 | 1.15596 | 36160 ft | 449 kts | 336° |
| 2026-04-15 20:22 | 49.78963 | 1.12908 | 36161 ft | 449 kts | 336° |
| 2026-04-15 20:22 | 49.84960 | 1.10212 | 36153 ft | 449 kts | 336° |
| 2026-04-15 20:23 | 49.90907 | 1.07532 | 36155 ft | 448 kts | 336° |
| 2026-04-15 20:23 | 49.96896 | 1.04827 | 36152 ft | 448 kts | 336° |
| 2026-04-15 20:24 | 50.05837 | 1.00683 | 36147 ft | 444 kts | 333° |
| 2026-04-15 20:25 | 50.11510 | 0.97036 | 36139 ft | 441 kts | 330° |
| 2026-04-15 20:25 | 50.17136 | 0.93394 | 36136 ft | 441 kts | 330° |
| 2026-04-15 20:26 | 50.22797 | 0.89712 | 36137 ft | 441 kts | 330° |
| 2026-04-15 20:26 | 50.28453 | 0.86013 | 36135 ft | 441 kts | 330° |
| 2026-04-15 20:27 | 50.34112 | 0.82300 | 36130 ft | 441 kts | 330° |
| 2026-04-15 20:27 | 50.39738 | 0.78598 | 36129 ft | 441 kts | 330° |
| 2026-04-15 20:28 | 50.45404 | 0.74861 | 36127 ft | 442 kts | 330° |
| 2026-04-15 20:28 | 50.51069 | 0.71115 | 36131 ft | 442 kts | 330° |
| 2026-04-15 20:29 | 50.56748 | 0.67350 | 36125 ft | 443 kts | 330° |
| 2026-04-15 20:29 | 50.62424 | 0.63577 | 36010 ft | 442 kts | 330° |
| 2026-04-15 20:29 | 50.65218 | 0.61718 | 35527 ft | 442 kts | 330° |
| 2026-04-15 20:30 | 50.68058 | 0.59822 | 34804 ft | 445 kts | 330° |
| 2026-04-15 20:30 | 50.70917 | 0.57910 | 33950 ft | 449 kts | 330° |
| 2026-04-15 20:30 | 50.73802 | 0.55979 | 32998 ft | 451 kts | 330° |
| 2026-04-15 20:30 | 50.76688 | 0.54048 | 32151 ft | 450 kts | 330° |
| 2026-04-15 20:31 | 50.79571 | 0.52119 | 31308 ft | 449 kts | 329° |
| 2026-04-15 20:31 | 50.82437 | 0.50199 | 30526 ft | 446 kts | 329° |
| 2026-04-15 20:31 | 50.85288 | 0.48283 | 29641 ft | 444 kts | 329° |
| 2026-04-15 20:31 | 50.88071 | 0.46411 | 28964 ft | 436 kts | 329° |
| 2026-04-15 20:32 | 50.90831 | 0.44557 | 28441 ft | 426 kts | 329° |
| 2026-04-15 20:32 | 50.93539 | 0.42732 | 27845 ft | 419 kts | 329° |
| 2026-04-15 20:32 | 50.95301 | 0.41542 | 27462 ft | 415 kts | 329° |
| 2026-04-15 20:32 | 50.98320 | 0.39498 | 26808 ft | 408 kts | 329° |
| 2026-04-15 20:33 | 51.00911 | 0.37741 | 26234 ft | 402 kts | 329° |
| 2026-04-15 20:33 | 51.03463 | 0.36009 | 25674 ft | 397 kts | 329° |
| 2026-04-15 20:33 | 51.05992 | 0.34291 | 25125 ft | 393 kts | 329° |
| 2026-04-15 20:33 | 51.08494 | 0.32588 | 24584 ft | 389 kts | 329° |
| 2026-04-15 20:34 | 51.10973 | 0.30899 | 24052 ft | 386 kts | 330° |
| 2026-04-15 20:34 | 51.13424 | 0.29226 | 23511 ft | 383 kts | 330° |